Time;durP1;ratioP1;P1;durP2;ratioP2;P2;SDS_P1;SDS_P2;PMS_P1;PMS_P2;Temp;Humidity;BMP_temperature;BMP_pressure;BME280_temperature;BME280_humidity;BME280_pressure;Samples;Min_cycle;Max_cycle;Signal;HPM_P1;HPM_P2
2022/06/28 00:01:40;;;;;;;4.10;1.65;;;;;;;22.29;54.62;99902.97;4928820;29;20402;-86
2022/06/28 00:04:09;;;;;;;4.68;1.40;;;;;;;22.29;54.63;99908.28;4929566;29;20059;-85
2022/06/28 00:06:34;;;;;;;5.20;1.90;;;;;;;22.30;54.57;99903.81;4945933;29;20106;-87
2022/06/28 00:09:00;;;;;;;4.28;1.70;;;;;;;22.27;54.47;99905.72;4929005;29;20373;-87
2022/06/28 00:11:26;;;;;;;5.22;1.60;;;;;;;22.27;54.75;99900.41;4930156;29;20027;-85
2022/06/28 00:13:53;;;;;;;4.43;1.77;;;;;;;22.27;54.96;99897.75;4930466;29;20023;-87
2022/06/28 00:16:19;;;;;;;4.15;1.60;;;;;;;22.27;54.58;99899.53;4931926;29;20038;-87
2022/06/28 00:18:46;;;;;;;4.75;1.77;;;;;;;22.27;54.65;99888.91;4934456;29;20035;-86
2022/06/28 00:21:12;;;;;;;4.13;1.58;;;;;;;22.29;54.67;99891.47;4934617;29;20031;-88
2022/06/28 00:23:40;;;;;;;4.28;1.77;;;;;;;22.26;54.78;99881.88;4931288;29;20043;-88
2022/06/28 00:26:07;;;;;;;3.20;1.75;;;;;;;22.27;54.57;99884.47;4931614;29;20035;-86
2022/06/28 00:28:33;;;;;;;3.33;1.40;;;;;;;22.26;54.57;99885.41;4931031;29;20370;-87
2022/06/28 00:30:59;;;;;;;3.50;1.48;;;;;;;22.27;54.87;99888.91;4928740;29;20480;-87
2022/06/28 00:33:25;;;;;;;3.20;1.60;;;;;;;22.26;54.97;99885.41;4943808;29;20102;-86
2022/06/28 00:35:50;;;;;;;4.13;1.85;;;;;;;22.25;54.57;99881.03;4929009;29;20059;-86
2022/06/28 00:38:16;;;;;;;4.88;1.65;;;;;;;22.28;54.48;99874.69;4927155;29;20079;-85
2022/06/28 00:40:51;;;;;;;5.63;1.67;;;;;;;22.24;54.62;99871.34;4926473;29;20130;-86
2022/06/28 00:43:18;;;;;;;3.38;1.67;;;;;;;22.24;54.92;99874.00;4926971;29;20094;-86
2022/06/28 00:45:45;;;;;;;4.20;2.17;;;;;;;22.25;54.72;99865.09;4926754;29;20036;-86
2022/06/28 00:48:17;;;;;;;3.63;1.65;;;;;;;22.24;54.53;99863.34;4926892;29;20086;-87
2022/06/28 00:50:43;;;;;;;4.53;1.67;;;;;;;22.23;54.74;99866.97;4927653;29;20028;-87
2022/06/28 00:53:13;;;;;;;6.07;1.67;;;;;;;22.21;54.65;99858.25;4929293;29;20378;-86
2022/06/28 00:55:40;;;;;;;3.60;1.60;;;;;;;22.23;54.68;99866.97;4929660;29;20027;-86
2022/06/28 00:58:07;;;;;;;4.22;1.88;;;;;;;22.23;54.90;99861.66;4929802;29;20039;-86
2022/06/28 01:00:40;;;;;;;3.70;1.85;;;;;;;22.24;54.80;99865.19;4929965;29;20028;-87
2022/06/28 01:03:06;;;;;;;3.33;1.73;;;;;;;22.22;54.59;99859.94;4932658;29;20066;-88
2022/06/28 01:05:34;;;;;;;5.35;2.00;;;;;;;22.22;54.81;99857.28;4932726;29;20035;-88
2022/06/28 01:08:01;;;;;;;3.88;1.80;;;;;;;22.23;54.51;99852.84;4932273;29;20050;-89
2022/06/28 01:10:27;;;;;;;3.72;1.70;;;;;;;22.22;54.52;99859.94;4932796;29;20099;-88
2022/06/28 01:12:52;;;;;;;4.35;1.75;;;;;;;22.22;54.65;99859.94;4947446;29;20058;-86
2022/06/28 01:15:18;;;;;;;3.33;1.80;;;;;;;22.22;54.55;99849.31;4930781;29;20042;-88
2022/06/28 01:17:44;;;;;;;3.22;1.60;;;;;;;22.21;54.85;99857.38;4931128;29;20039;-88
2022/06/28 01:20:10;;;;;;;3.63;1.88;;;;;;;22.20;54.76;99853.88;4933763;29;20517;-88
2022/06/28 01:22:45;;;;;;;5.75;2.10;;;;;;;22.19;54.83;99849.50;4935129;29;20067;-88
2022/06/28 01:25:11;;;;;;;4.05;1.92;;;;;;;22.20;54.54;99845.91;4951282;29;20035;-88
2022/06/28 01:27:37;;;;;;;4.40;2.30;;;;;;;22.19;54.57;99838.88;4931925;29;20040;-88
2022/06/28 01:30:04;;;;;;;3.63;1.80;;;;;;;22.19;54.79;99846.84;4929222;29;20036;-87
2022/06/28 01:32:30;;;;;;;3.13;1.85;;;;;;;22.19;54.75;99844.19;4930837;29;20038;-88
2022/06/28 01:34:56;;;;;;;3.53;1.80;;;;;;;22.20;54.74;99845.03;4931007;29;20055;-88
2022/06/28 01:37:23;;;;;;;5.30;2.10;;;;;;;22.19;54.79;99844.19;4931289;29;20469;-89
2022/06/28 01:39:48;;;;;;;4.10;1.95;;;;;;;22.17;54.95;99834.59;4932416;29;20073;-89
2022/06/28 01:42:14;;;;;;;6.68;2.00;;;;;;;22.18;54.57;99845.13;4932606;29;20529;-88
2022/06/28 01:44:43;;;;;;;3.78;1.80;;;;;;;22.18;54.54;99842.47;4931132;29;20034;-88
2022/06/28 01:47:12;;;;;;;4.43;2.30;;;;;;;22.17;54.59;99840.75;4931369;29;20118;-88
2022/06/28 01:49:40;;;;;;;4.32;2.10;;;;;;;22.18;54.64;99850.44;4930732;29;20529;-88
2022/06/28 01:52:06;;;;;;;3.83;1.80;;;;;;;22.18;54.77;99852.25;4928372;29;20047;-88
2022/06/28 01:54:32;;;;;;;4.90;2.20;;;;;;;22.17;54.81;99848.72;4929764;29;20024;-88
2022/06/28 01:57:00;;;;;;;4.30;1.85;;;;;;;22.16;54.70;99847.03;4929069;29;20027;-87
2022/06/28 01:59:26;;;;;;;5.82;2.30;;;;;;;22.16;54.40;99843.50;4932061;29;20032;-87
2022/06/28 02:01:52;;;;;;;4.85;1.95;;;;;;;22.16;54.74;99844.38;4931387;29;20038;-86
2022/06/28 02:04:23;;;;;;;3.85;1.88;;;;;;;22.17;54.56;99839.91;4930266;29;20418;-87
2022/06/28 02:06:49;;;;;;;5.38;2.10;;;;;;;22.15;54.47;99842.66;4929514;29;20480;-86
2022/06/28 02:09:15;;;;;;;4.05;2.00;;;;;;;22.17;54.69;99847.91;4947514;29;20048;-86
2022/06/28 02:11:42;;;;;;;4.68;2.25;;;;;;;22.15;54.50;99837.34;4930607;29;20046;-86
2022/06/28 02:14:08;;;;;;;5.88;2.40;;;;;;;22.16;54.95;99838.19;4932093;29;20109;-87
2022/06/28 02:16:34;;;;;;;3.55;1.90;;;;;;;22.15;54.52;99837.34;4948571;29;20061;-87
2022/06/28 02:19:01;;;;;;;4.68;2.40;;;;;;;22.15;54.69;99832.03;4932445;29;20031;-88
2022/06/28 02:21:27;;;;;;;5.07;2.08;;;;;;;22.14;54.71;99840.97;4932339;29;20031;-89
2022/06/28 02:23:53;;;;;;;4.32;2.35;;;;;;;22.13;54.75;99833.94;4936278;29;20023;-87
2022/06/28 02:26:19;;;;;;;4.35;2.20;;;;;;;22.14;54.56;99833.00;4935619;29;20433;-87
2022/06/28 02:28:45;;;;;;;6.50;2.10;;;;;;;22.13;54.28;99833.94;4949321;29;20058;-88
2022/06/28 02:31:13;;;;;;;6.07;2.00;;;;;;;22.13;54.65;99828.63;4930574;29;20043;-89
2022/06/28 02:33:39;;;;;;;5.78;2.42;;;;;;;22.11;54.55;99825.19;4932355;29;20031;-88
2022/06/28 02:41:34;;;;;;;4.40;2.08;;;;;;;22.12;54.93;99821.56;4950027;29;20366;-88
2022/06/28 02:44:00;;;;;;;3.83;2.05;;;;;;;22.09;54.67;99817.28;4935593;29;20118;-88
2022/06/28 02:46:26;;;;;;;4.72;2.00;;;;;;;22.09;54.89;99821.78;4940555;29;20071;-88
2022/06/28 02:48:52;;;;;;;4.35;2.08;;;;;;;22.09;54.51;99816.47;4931031;29;20122;-88
2022/06/28 02:51:17;;;;;;;4.22;1.98;;;;;;;22.09;54.57;99805.81;4931842;29;20035;-86
2022/06/28 02:53:43;;;;;;;4.20;1.80;;;;;;;22.09;54.61;99805.81;4934281;29;20039;-87
2022/06/28 02:56:09;;;;;;;3.65;1.90;;;;;;;22.07;54.65;99808.56;4931781;29;20027;-88
2022/06/28 02:58:35;;;;;;;3.65;2.03;;;;;;;22.07;54.59;99810.34;4931993;29;20028;-87
2022/06/28 03:01:01;;;;;;;4.40;2.03;;;;;;;22.07;54.45;99807.69;4932383;29;20067;-88
2022/06/28 03:03:26;;;;;;;4.35;2.17;;;;;;;22.06;54.51;99806.00;4950301;29;20028;-86
2022/06/28 03:05:52;;;;;;;5.68;1.98;;;;;;;22.06;54.49;99806.00;4933500;29;20099;-88
2022/06/28 03:08:18;;;;;;;4.25;1.80;;;;;;;22.07;54.85;99797.06;4934719;29;20087;-90
2022/06/28 03:10:44;;;;;;;4.88;2.13;;;;;;;22.06;54.55;99798.03;4932630;29;20484;-88
2022/06/28 03:13:10;;;;;;;3.38;2.05;;;;;;;22.06;54.67;99798.03;4933856;29;20048;-87
2022/06/28 03:15:36;;;;;;;5.82;2.20;;;;;;;22.06;54.55;99795.38;4934560;29;20177;-87
2022/06/28 03:18:02;;;;;;;4.45;2.45;;;;;;;22.04;54.44;99792.81;4933000;29;20036;-88
2022/06/28 03:20:28;;;;;;;4.05;2.00;;;;;;;22.06;54.43;99795.38;4946291;29;20042;-88
2022/06/28 03:22:54;;;;;;;4.20;2.13;;;;;;;22.06;54.52;99800.69;4931271;29;20032;-88
2022/06/28 03:25:21;;;;;;;5.07;1.90;;;;;;;22.04;54.65;99791.97;4933652;29;20050;-86
2022/06/28 03:27:46;;;;;;;3.97;1.90;;;;;;;22.04;54.72;99784.84;4935963;29;20043;-85
2022/06/28 03:30:13;;;;;;;5.10;2.20;;;;;;;22.05;54.30;99793.66;4951683;29;20066;-86
2022/06/28 03:32:39;;;;;;;5.20;1.90;;;;;;;22.05;54.87;99789.22;4947562;29;20039;-87
2022/06/28 03:35:06;;;;;;;5.03;2.13;;;;;;;22.04;54.66;99791.97;4930248;29;20024;-87
2022/06/28 03:37:32;;;;;;;4.72;1.88;;;;;;;22.03;54.38;99779.63;4932736;29;20535;-88
2022/06/28 03:39:58;;;;;;;4.35;2.05;;;;;;;22.03;54.41;99780.47;4931522;29;20055;-87
2022/06/28 03:42:24;;;;;;;4.65;1.92;;;;;;;22.03;54.45;99779.63;4932114;29;20036;-86
2022/06/28 03:44:50;;;;;;;3.97;1.95;;;;;;;22.03;54.58;99779.63;4930623;29;20031;-88
2022/06/28 03:47:16;;;;;;;4.20;2.03;;;;;;;22.02;54.55;99777.94;4930035;29;20036;-87
2022/06/28 03:49:41;;;;;;;5.38;2.08;;;;;;;22.00;54.49;99773.53;4946238;29;20031;-88
2022/06/28 03:52:07;;;;;;;4.88;2.05;;;;;;;22.03;54.75;99769.00;4929405;29;20023;-88
2022/06/28 03:54:33;;;;;;;4.43;2.10;;;;;;;22.02;54.63;99772.63;4928931;29;20031;-89
2022/06/28 03:56:59;;;;;;;2.92;1.60;;;;;;;21.99;54.67;99763.84;4928804;29;20039;-89
2022/06/28 03:59:25;;;;;;;4.55;1.80;;;;;;;21.99;54.43;99774.47;4930226;29;20039;-89
2022/06/28 04:01:51;;;;;;;3.85;2.15;;;;;;;21.99;54.43;99768.34;4928481;29;20377;-89
2022/06/28 04:04:17;;;;;;;2.97;1.77;;;;;;;21.99;54.44;99766.50;4932493;29;20043;-89
2022/06/28 04:06:43;;;;;;;4.00;1.95;;;;;;;21.98;54.34;99758.63;4935045;29;20417;-90
2022/06/28 04:09:09;;;;;;;6.40;2.00;;;;;;;21.99;54.44;99758.53;4935423;29;20038;-88
2022/06/28 04:11:34;;;;;;;4.10;1.70;;;;;;;21.99;54.56;99758.53;4935082;29;20032;-88
2022/06/28 04:14:01;;;;;;;4.63;2.08;;;;;;;21.98;54.61;99761.28;4935751;29;20028;-89
2022/06/28 04:16:26;;;;;;;4.18;1.60;;;;;;;21.99;54.43;99757.72;4920153;29;20031;-87
2022/06/28 04:18:53;;;;;;;4.55;2.45;;;;;;;21.96;54.52;99748.13;4935195;29;20042;-87
2022/06/28 04:21:20;;;;;;;3.75;1.80;;;;;;;21.96;54.40;99748.13;4935077;29;20032;-87
2022/06/28 04:23:46;;;;;;;5.43;2.03;;;;;;;21.96;54.42;99758.75;4935473;29;20039;-87
2022/06/28 04:26:13;;;;;;;3.75;1.90;;;;;;;21.96;54.39;99758.75;4933514;29;20036;-87
2022/06/28 04:28:39;;;;;;;3.83;1.63;;;;;;;21.96;54.39;99753.44;4934201;29;20046;-87
2022/06/28 04:31:06;;;;;;;5.32;2.30;;;;;;;21.96;54.44;99742.81;4952345;29;20031;-88
2022/06/28 04:33:33;;;;;;;4.53;2.08;;;;;;;21.96;54.33;99740.16;4933103;29;20038;-87
2022/06/28 04:35:59;;;;;;;3.33;1.80;;;;;;;21.95;54.45;99745.53;4929222;29;20028;-86
2022/06/28 04:38:25;;;;;;;6.07;2.10;;;;;;;21.97;54.32;99743.63;4930178;29;20087;-87
2022/06/28 04:40:51;;;;;;;4.13;1.90;;;;;;;21.96;54.11;99748.13;4930904;29;20036;-88
2022/06/28 04:43:16;;;;;;;4.03;1.70;;;;;;;21.94;54.27;99744.69;4931014;29;20039;-86
2022/06/28 04:45:42;;;;;;;5.20;2.05;;;;;;;21.94;54.31;99743.84;4931303;29;20042;-86
2022/06/28 04:48:08;;;;;;;4.75;1.85;;;;;;;21.95;54.53;99741.09;4928552;29;20035;-89
2022/06/28 04:50:34;;;;;;;5.25;1.98;;;;;;;21.94;54.40;99742.03;4928971;29;20038;-88
2022/06/28 04:53:00;;;;;;;5.10;2.00;;;;;;;21.95;54.53;99741.09;4928465;29;20062;-87
2022/06/28 04:55:27;;;;;;;4.03;1.98;;;;;;;21.94;54.39;99738.53;4930775;29;20427;-87
2022/06/28 04:57:53;;;;;;;4.53;1.88;;;;;;;21.92;54.30;99732.44;4947894;29;20400;-86
2022/06/28 05:00:19;;;;;;;5.18;1.83;;;;;;;21.94;54.70;99730.56;4930424;29;20036;-86
2022/06/28 05:02:48;;;;;;;3.72;1.70;;;;;;;21.92;54.45;99729.78;4933590;29;20036;-87
2022/06/28 05:05:14;;;;;;;3.70;1.90;;;;;;;21.92;54.53;99730.66;4951350;29;20031;-87
2022/06/28 05:07:43;;;;;;;3.45;1.60;;;;;;;21.91;54.44;99728.94;4925959;29;20028;-87
2022/06/28 05:10:16;;;;;;;4.18;1.73;;;;;;;21.93;54.32;99721.72;4932962;29;20108;-88
2022/06/28 05:12:43;;;;;;;6.57;2.05;;;;;;;21.92;54.41;99713.84;4932933;29;20445;-87
2022/06/28 05:15:11;;;;;;;4.43;1.70;;;;;;;21.93;54.42;99705.78;4930470;29;20032;-88
2022/06/28 05:17:37;;;;;;;4.78;1.88;;;;;;;21.93;54.59;99711.09;4929029;29;20442;-87
2022/06/28 05:20:05;;;;;;;3.78;2.20;;;;;;;21.92;54.40;99713.84;4930759;29;20091;-87
2022/06/28 05:22:30;;;;;;;4.88;1.83;;;;;;;21.93;54.42;99711.09;4930003;29;20060;-88
2022/06/28 05:24:56;;;;;;;3.00;1.60;;;;;;;21.91;54.41;99707.69;4932204;29;20115;-86
2022/06/28 05:27:22;;;;;;;4.15;1.83;;;;;;;21.91;54.73;99710.34;4949277;29;20030;-88
2022/06/28 05:29:48;;;;;;;4.35;1.92;;;;;;;21.91;54.49;99720.09;4937643;29;20028;-87
2022/06/28 05:32:15;;;;;;;3.78;1.65;;;;;;;21.91;54.63;99718.31;4925018;29;20035;-87
2022/06/28 05:34:41;;;;;;;3.70;1.80;;;;;;;21.91;54.61;99713.00;4910847;29;20027;-86
2022/06/28 05:37:07;;;;;;;4.72;1.90;;;;;;;21.90;54.54;99713.94;4922730;29;20047;-88
2022/06/28 05:39:33;;;;;;;4.30;1.80;;;;;;;21.91;54.73;99722.75;4937865;29;20084;-87
2022/06/28 05:41:59;;;;;;;3.95;1.88;;;;;;;21.92;54.67;99724.47;4935509;29;20378;-87
2022/06/28 05:44:27;;;;;;;4.43;1.77;;;;;;;21.93;54.41;99731.50;4936028;29;20031;-88
2022/06/28 05:46:53;;;;;;;4.68;1.92;;;;;;;21.92;54.34;99727.97;4939442;29;20091;-88
2022/06/28 05:49:19;;;;;;;4.55;1.80;;;;;;;21.93;54.54;99721.72;4937269;29;20496;-87
2022/06/28 05:51:44;;;;;;;4.13;2.00;;;;;;;21.94;54.46;99718.09;4939694;29;20050;-87
2022/06/28 05:54:11;;;;;;;4.32;1.98;;;;;;;21.92;54.38;99725.31;4941387;29;20024;-88
2022/06/28 05:56:37;;;;;;;4.15;1.85;;;;;;;21.95;54.50;99727.81;4942205;29;20032;-89
2022/06/28 05:59:06;;;;;;;4.85;2.00;;;;;;;21.95;54.63;99725.16;4945084;29;20042;-89
2022/06/28 06:01:32;;;;;;;4.53;2.05;;;;;;;21.96;54.40;99721.53;4943012;29;20094;-88
2022/06/28 06:03:58;;;;;;;4.90;2.10;;;;;;;21.97;54.25;99728.56;4941849;29;20133;-87
2022/06/28 06:06:31;;;;;;;5.55;2.15;;;;;;;21.96;54.39;99720.69;4945746;28;20087;-93
2022/06/28 06:09:05;;;;;;;3.75;1.95;;;;;;;21.97;54.32;99736.53;4934309;28;20023;-92
2022/06/28 06:11:54;;;;;;;3.97;2.10;;;;;;;21.97;54.36;99727.69;4947645;28;20019;-91
2022/06/28 06:14:31;;;;;;;5.60;2.13;;;;;;;21.96;54.30;99726.88;4948454;28;20043;-92
2022/06/28 06:16:57;;;;;;;3.80;1.92;;;;;;;21.96;54.26;99721.53;4942179;28;20024;-92
2022/06/28 06:19:28;;;;;;;4.32;2.00;;;;;;;21.98;54.45;99719.63;4943792;29;20032;-88
2022/06/28 06:22:06;;;;;;;3.70;1.70;;;;;;;21.98;54.18;99722.28;4959968;28;20023;-89
2022/06/28 06:24:59;;;;;;;3.38;1.58;;;;;;;21.99;54.38;99731.13;4948777;28;20051;-91
2022/06/28 06:27:25;;;;;;;4.57;2.13;;;;;;;22.00;54.42;99722.22;4941332;29;20044;-89
2022/06/28 06:29:50;;;;;;;5.45;1.70;;;;;;;22.03;54.18;99729.16;4930610;29;20040;-88
2022/06/28 06:32:16;;;;;;;3.72;2.00;;;;;;;22.05;54.43;99724.56;4932113;29;20043;-88
2022/06/28 06:34:42;;;;;;;3.90;1.67;;;;;;;22.07;54.33;99727.97;4931920;29;20031;-88
2022/06/28 06:37:08;;;;;;;3.92;1.95;;;;;;;22.07;54.62;99722.66;4933476;29;20058;-89
2022/06/28 06:39:35;;;;;;;4.75;1.77;;;;;;;22.07;54.44;99727.97;4931691;29;20371;-89
2022/06/28 07:22:23;;;;;;;3.65;1.50;;;;;;;22.28;54.22;99731.16;4907311;29;20099;-88
2022/06/28 07:24:51;;;;;;;3.15;1.50;;;;;;;22.31;54.21;99740.69;4890864;29;20043;-86
2022/06/28 07:27:17;;;;;;;5.35;2.13;;;;;;;22.31;54.21;99741.56;4892195;29;20048;-88
2022/06/28 07:29:43;;;;;;;3.88;1.40;;;;;;;22.33;54.33;99738.81;4891690;29;20104;-87
2022/06/28 07:32:09;;;;;;;3.05;1.10;;;;;;;22.35;54.33;99744.88;4891993;29;20036;-89
2022/06/28 07:34:35;;;;;;;4.57;1.40;;;;;;;22.37;54.28;99748.31;4900426;29;20028;-88
2022/06/28 07:37:01;;;;;;;3.55;1.20;;;;;;;22.38;54.05;99747.38;4930925;29;20043;-89
2022/06/28 07:39:27;;;;;;;4.32;1.40;;;;;;;22.38;53.88;99747.38;4932674;29;20062;-89
2022/06/28 07:41:53;;;;;;;4.70;1.15;;;;;;;22.42;54.14;99743.53;4935959;29;20039;-88
2022/06/28 07:44:19;;;;;;;5.47;1.60;;;;;;;22.42;54.00;99740.88;4950714;29;20024;-87
2022/06/28 07:46:45;;;;;;;5.10;1.30;;;;;;;22.44;53.84;99744.31;4930607;29;20031;-87
2022/06/28 07:49:11;;;;;;;5.50;1.50;;;;;;;22.44;54.36;99741.66;4922534;29;20031;-87
2022/06/28 07:54:22;;;;;;;3.10;1.20;;;;;;;22.48;54.00;99727.19;4942403;29;20063;-85
2022/06/28 07:56:47;;;;;;;4.32;1.20;;;;;;;22.49;53.96;99723.63;4915027;29;20024;-87
2022/06/28 07:59:13;;;;;;;4.25;1.75;;;;;;;22.51;53.81;99720.84;4907344;29;20050;-86
2022/06/28 08:01:50;;;;;;;3.35;1.20;;;;;;;22.51;53.85;99727.03;4916901;29;20039;-92
2022/06/28 08:04:29;;;;;;;5.00;1.25;;;;;;;22.53;53.90;99719.81;4942677;29;20035;-89
2022/06/28 08:07:16;;;;;;;3.88;1.50;;;;;;;22.56;53.89;99720.59;4942263;29;20012;-92
2022/06/28 08:09:42;;;;;;;3.72;1.27;;;;;;;22.56;53.63;99712.63;4926321;29;20013;-92
2022/06/28 08:12:14;;;;;;;4.35;1.33;;;;;;;22.58;53.62;99711.56;4926635;29;20013;-95
2022/06/28 08:14:41;;;;;;;2.83;1.10;;;;;;;22.60;53.47;99706.13;4926593;29;20064;-92
2022/06/28 08:17:07;;;;;;;4.65;1.23;;;;;;;22.62;53.55;99709.56;4910885;29;20044;-92
2022/06/28 08:19:36;;;;;;;4.03;1.13;;;;;;;22.64;53.38;99710.31;4926219;29;20023;-91
2022/06/28 08:22:23;;;;;;;4.75;1.33;;;;;;;22.65;53.34;99702.25;4929093;29;20032;-90
2022/06/28 08:25:10;;;;;;;3.30;1.52;;;;;;;22.66;53.25;99706.59;4921488;29;20024;-90
2022/06/28 08:27:58;;;;;;;3.80;1.02;;;;;;;22.70;53.34;99704.59;4942275;29;20027;-92
2022/06/28 08:30:25;;;;;;;3.78;1.15;;;;;;;22.71;53.24;99703.63;4919970;29;20133;-86
2022/06/28 08:32:51;;;;;;;4.85;1.40;;;;;;;22.74;53.25;99708.78;4913727;29;20032;-88
2022/06/28 08:35:36;;;;;;;2.65;1.20;;;;;;;22.75;53.06;99697.19;4919560;29;20083;-93
2022/06/28 08:38:12;;;;;;;3.38;1.20;;;;;;;22.76;53.38;99693.56;4920567;29;20024;-90
2022/06/28 08:40:45;;;;;;;4.45;1.50;;;;;;;22.78;52.95;99696.13;4924882;29;20060;-94
2022/06/28 08:43:17;;;;;;;4.00;1.15;;;;;;;22.79;53.07;99692.50;4910269;29;20066;-94
2022/06/28 08:52:02;;;;;;;3.15;1.23;;;;;;;22.87;52.65;99692.88;4959255;28;20067;-90
2022/06/28 08:54:28;;;;;;;3.97;1.25;;;;;;;22.92;52.37;99689.91;4938990;29;20064;-89
2022/06/28 08:56:58;;;;;;;3.28;1.17;;;;;;;22.91;52.97;99696.19;4937479;29;20055;-89
2022/06/28 08:59:25;;;;;;;4.53;1.35;;;;;;;22.95;52.67;99692.34;4922703;29;20016;-88
2022/06/28 09:01:51;;;;;;;3.67;1.27;;;;;;;22.95;52.71;99687.03;4922949;29;20027;-89
2022/06/28 09:04:17;;;;;;;5.47;1.27;;;;;;;22.97;52.53;99682.47;4936982;29;20038;-89
2022/06/28 09:06:43;;;;;;;5.43;1.27;;;;;;;22.98;52.56;99681.53;4935845;29;20063;-90
2022/06/28 09:09:08;;;;;;;4.13;1.20;;;;;;;23.00;52.37;99682.25;4935297;29;20047;-86
2022/06/28 09:11:45;;;;;;;3.78;1.00;;;;;;;23.02;52.53;99680.38;4935203;29;20038;-87
2022/06/28 09:14:21;;;;;;;5.18;1.10;;;;;;;23.03;52.00;99674.09;4940737;29;20059;-88
2022/06/28 09:16:48;;;;;;;4.18;1.50;;;;;;;23.06;52.19;99679.19;4957370;28;20032;-88
2022/06/28 09:19:47;;;;;;;3.50;1.00;;;;;;;23.07;51.87;99664.91;4943380;28;20023;-90
2022/06/28 09:22:45;;;;;;;4.93;1.30;;;;;;;23.10;51.68;99665.69;4932824;28;20023;-94
2022/06/28 09:28:51;;;;;;;3.92;1.05;;;;;;;23.13;51.62;99662.81;4964568;28;20034;-92
2022/06/28 09:31:41;;;;;;;3.53;0.90;;;;;;;23.15;51.87;99660.91;4948823;28;20024;-93
2022/06/28 09:34:12;;;;;;;5.15;1.20;;;;;;;23.16;51.32;99673.25;4931535;28;20027;-91
2022/06/28 09:36:55;;;;;;;3.92;1.40;;;;;;;23.17;51.74;99664.31;4948155;28;20067;-92
2022/06/28 09:39:29;;;;;;;6.03;1.38;;;;;;;23.18;51.89;99658.91;4948423;28;20035;-91
2022/06/28 09:42:00;;;;;;;4.10;1.13;;;;;;;23.20;51.59;99654.31;4963584;28;20020;-90
2022/06/28 09:44:38;;;;;;;2.55;0.90;;;;;;;23.22;51.61;99650.69;4940939;28;20051;-88
2022/06/28 09:47:34;;;;;;;2.80;1.20;;;;;;;23.23;51.26;99642.59;4932311;29;20035;-90
2022/06/28 09:50:11;;;;;;;3.58;1.00;;;;;;;23.24;51.56;99644.31;4947042;28;20032;-90
2022/06/28 09:53:15;;;;;;;2.65;0.77;;;;;;;23.28;51.25;99643.16;4945717;28;20066;-88
2022/06/28 09:56:05;;;;;;;3.45;1.65;;;;;;;23.30;51.38;99633.25;4931262;28;20100;-87
2022/06/28 09:58:34;;;;;;;3.72;1.20;;;;;;;23.31;51.25;99629.69;4945151;28;20064;-86
2022/06/28 10:01:01;;;;;;;3.00;1.13;;;;;;;23.34;51.34;99628.59;4944210;29;20132;-88
2022/06/28 10:03:35;;;;;;;4.13;1.20;;;;;;;23.36;51.49;99631.16;4944878;28;20020;-91
2022/06/28 10:06:02;;;;;;;3.28;1.10;;;;;;;23.39;51.36;99628.28;4926586;28;20036;-90
2022/06/28 10:08:42;;;;;;;2.67;0.80;;;;;;;23.41;51.09;99613.91;4963861;28;20051;-92
2022/06/28 10:11:10;;;;;;;3.45;0.95;;;;;;;23.44;50.95;99618.19;4931892;28;20034;-88
2022/06/28 10:16:48;;;;;;;4.95;1.05;;;;;;;23.48;50.72;99621.47;4949975;28;20068;-91
2022/06/28 10:19:21;;;;;;;5.72;1.17;;;;;;;23.49;51.01;99621.38;4946843;28;20058;-91
2022/06/28 10:22:17;;;;;;;2.10;1.10;;;;;;;23.51;50.80;99616.78;4928186;28;20031;-91
2022/06/28 10:25:31;;;;;;;2.67;1.00;;;;;;;23.57;50.84;99618.16;4962415;28;20039;-88
2022/06/28 10:28:01;;;;;;;3.30;1.00;;;;;;;23.58;50.90;99612.72;4941363;28;20040;-91
2022/06/28 10:30:51;;;;;;;2.15;1.00;;;;;;;23.62;50.47;99621.34;4914290;28;20095;-91
2022/06/28 10:33:43;;;;;;;3.22;1.30;;;;;;;23.65;50.30;99614.97;4946774;28;20016;-91
2022/06/28 10:36:15;;;;;;;3.88;0.95;;;;;;;23.66;50.42;99619.31;4946795;28;20012;-89
2022/06/28 10:39:09;;;;;;;2.92;0.93;;;;;;;23.68;50.40;99620.94;4958825;28;20083;-90
2022/06/28 10:42:12;;;;;;;3.30;1.10;;;;;;;23.73;50.16;99617.97;4936049;28;20055;-91
2022/06/28 10:44:54;;;;;;;2.67;0.85;;;;;;;23.76;50.27;99616.91;4936540;28;20036;-94
2022/06/28 10:47:32;;;;;;;2.05;0.77;;;;;;;23.78;49.84;99613.13;4959211;28;20020;-87
2022/06/28 10:50:02;;;;;;;4.30;1.20;;;;;;;23.79;49.62;99620.19;4908319;29;20028;-91
2022/06/28 10:53:13;;;;;;;5.20;1.30;;;;;;;23.82;49.96;99617.28;4923119;29;20043;-92
2022/06/28 10:55:40;;;;;;;3.42;1.23;;;;;;;23.84;49.80;99610.06;4868218;29;20025;-93
2022/06/28 10:58:12;;;;;;;3.22;1.20;;;;;;;23.87;49.72;99604.50;4908099;29;20020;-92
2022/06/28 11:00:52;;;;;;;3.97;1.23;;;;;;;23.87;49.59;99599.16;4877590;29;20175;-92
2022/06/28 11:03:19;;;;;;;3.47;1.20;;;;;;;23.89;48.92;99596.41;4907918;29;20021;-92
2022/06/28 11:06:16;;;;;;;4.25;1.10;;;;;;;23.89;48.88;99587.53;4892535;29;20096;-92
2022/06/28 11:08:54;;;;;;;5.10;1.30;;;;;;;23.90;47.91;99597.25;4891811;29;20024;-93
2022/06/28 11:11:22;;;;;;;4.47;1.33;;;;;;;23.92;48.84;99595.34;4921053;29;20033;-93
2022/06/28 11:13:48;;;;;;;3.72;1.17;;;;;;;23.93;49.14;99592.56;4906816;29;20032;-93
2022/06/28 11:16:45;;;;;;;3.65;1.13;;;;;;;23.95;49.29;99590.63;4907711;29;20021;-93
2022/06/28 11:19:13;;;;;;;2.38;1.30;;;;;;;23.98;49.34;99584.22;4907211;29;20049;-93
2022/06/28 11:22:05;;;;;;;2.80;1.00;;;;;;;23.99;49.39;99585.94;4908636;28;20032;-93
2022/06/28 11:24:32;;;;;;;2.75;1.08;;;;;;;23.99;48.79;99585.94;4945194;28;20047;-92
2022/06/28 11:27:24;;;;;;;3.03;0.95;;;;;;;24.00;48.74;99582.28;4945863;28;20019;-93
2022/06/28 11:30:07;;;;;;;2.97;1.00;;;;;;;24.00;48.55;99576.97;4931097;28;20019;-90
2022/06/28 11:33:08;;;;;;;3.00;1.35;;;;;;;24.02;49.03;99580.38;4959068;28;20036;-92
2022/06/28 11:35:43;;;;;;;3.38;1.02;;;;;;;24.05;48.46;99576.63;4945892;28;20040;-93
2022/06/28 11:38:15;;;;;;;2.58;1.05;;;;;;;24.04;48.40;99570.47;4930158;28;20020;-93
2022/06/28 11:40:50;;;;;;;2.28;1.00;;;;;;;24.06;48.77;99576.53;4929543;28;20020;-93
2022/06/28 11:43:29;;;;;;;3.25;1.15;;;;;;;24.09;48.69;99572.81;4929395;28;20024;-93
2022/06/28 11:46:00;;;;;;;2.97;0.98;;;;;;;24.10;48.94;99566.53;4929343;28;20031;-94
2022/06/28 11:48:29;;;;;;;3.10;1.00;;;;;;;24.13;49.04;99563.66;4959958;28;20043;-91
2022/06/28 11:51:07;;;;;;;3.78;0.90;;;;;;;24.15;48.77;99563.53;4959562;29;20089;-91
2022/06/28 11:53:47;;;;;;;2.42;0.77;;;;;;;24.18;48.83;99563.28;4929064;29;20119;-91
2022/06/28 11:56:13;;;;;;;2.53;1.02;;;;;;;24.22;49.17;99562.94;4927459;28;20128;-92
2022/06/28 11:58:42;;;;;;;2.20;0.90;;;;;;;24.23;48.72;99554.00;4960300;28;20095;-92
2022/06/28 12:01:24;;;;;;;1.95;0.98;;;;;;;24.25;48.98;99559.22;4943134;29;20016;-92
2022/06/28 12:04:06;;;;;;;2.33;0.90;;;;;;;24.27;49.06;99551.97;4928047;29;20020;-91
2022/06/28 12:06:35;;;;;;;2.65;0.90;;;;;;;24.30;49.12;99562.41;4959275;29;20019;-92
2022/06/28 12:09:22;;;;;;;2.95;1.00;;;;;;;24.32;48.92;99549.81;4943143;28;20046;-92
2022/06/28 12:11:56;;;;;;;1.67;0.75;;;;;;;24.36;49.00;99555.78;4958175;28;20028;-87
2022/06/28 12:14:39;;;;;;;3.35;1.00;;;;;;;24.37;48.87;99547.63;4940604;29;20020;-92
2022/06/28 12:17:05;;;;;;;2.00;0.80;;;;;;;24.41;49.07;99561.63;4940110;29;20058;-92
2022/06/28 12:19:41;;;;;;;3.05;0.93;;;;;;;24.43;48.57;99542.81;4941709;29;20024;-90
2022/06/28 12:22:27;;;;;;;2.40;0.80;;;;;;;24.45;48.92;99548.91;4922293;29;20057;-93
2022/06/28 12:28:17;;;;;;;3.78;0.90;;;;;;;24.49;48.87;99542.34;4922338;29;20047;-93
2022/06/28 12:30:42;;;;;;;2.90;0.80;;;;;;;24.51;48.63;99537.78;4905715;29;20045;-89
2022/06/28 12:33:20;;;;;;;2.45;0.80;;;;;;;24.52;48.88;99534.13;4905455;29;20016;-91
2022/06/28 12:35:47;;;;;;;3.38;0.98;;;;;;;24.55;48.66;99541.91;4906663;29;20021;-90
2022/06/28 12:38:29;;;;;;;1.83;0.95;;;;;;;24.56;48.65;99530.28;4906436;29;20024;-92
2022/06/28 12:41:15;;;;;;;2.17;0.90;;;;;;;24.59;48.85;99535.38;4917718;29;20031;-90
2022/06/28 12:43:42;;;;;;;2.90;1.00;;;;;;;24.59;48.65;99538.03;4922035;29;20113;-92
2022/06/28 12:46:10;;;;;;;4.68;0.90;;;;;;;24.62;48.81;99532.50;4911664;29;20083;-90
2022/06/28 12:48:38;;;;;;;3.22;1.00;;;;;;;24.64;48.55;99533.22;4906169;29;20017;-92
2022/06/28 12:51:05;;;;;;;4.18;1.00;;;;;;;24.64;48.55;99530.53;4920243;29;20041;-87
2022/06/28 12:53:33;;;;;;;2.13;0.80;;;;;;;24.66;48.74;99528.59;4882930;29;20104;-88
2022/06/28 12:56:08;;;;;;;2.47;1.02;;;;;;;24.69;48.67;99524.00;4909029;29;20025;-87